createdAt,value
2023-03-27T00:00:05.804Z,341.32
2023-03-27T00:01:05.788Z,341.32
2023-03-27T00:02:05.813Z,340.97
2023-03-27T00:03:05.886Z,343.48
2023-03-27T00:04:05.854Z,347.49
2023-03-27T00:05:05.763Z,342.76
2023-03-27T00:06:05.755Z,344.56
2023-03-27T00:07:05.734Z,339.90
2023-03-27T00:08:05.728Z,339.20
2023-03-27T00:09:05.697Z,337.10
2023-03-27T00:10:05.686Z,340.97
2023-03-27T00:11:05.660Z,341.32
2023-03-27T00:12:05.707Z,341.68
2023-03-27T00:13:05.686Z,342.76
2023-03-27T00:14:05.654Z,345.65
2023-03-27T00:15:05.643Z,346.76
2023-03-27T00:16:05.614Z,346.76
2023-03-27T00:17:05.636Z,344.20
2023-03-27T00:18:05.597Z,346.39
2023-03-27T00:19:05.561Z,346.39
2023-03-27T00:20:05.538Z,351.60
2023-03-27T00:21:05.545Z,344.56
2023-03-27T00:22:05.551Z,340.61
2023-03-27T00:23:05.536Z,340.61
2023-03-27T00:24:05.532Z,343.84
2023-03-27T00:25:05.495Z,342.04
2023-03-27T00:26:05.491Z,342.76
2023-03-27T00:27:05.450Z,344.93
2023-03-27T00:28:05.440Z,342.76
2023-03-27T00:29:05.429Z,343.48
2023-03-27T00:30:05.437Z,344.56
2023-03-27T00:31:05.448Z,338.15
2023-03-27T00:32:05.393Z,334.00
2023-03-27T00:33:05.407Z,333.66
2023-03-27T00:34:05.369Z,331.29
2023-03-27T00:35:05.359Z,330.96
2023-03-27T00:36:05.389Z,331.96
2023-03-27T00:37:05.340Z,335.72
2023-03-27T00:38:05.326Z,333.66
2023-03-27T00:39:05.308Z,332.64
2023-03-27T00:40:05.308Z,330.96
2023-03-27T00:41:05.365Z,330.62
2023-03-27T00:42:05.286Z,330.29
2023-03-27T00:43:05.264Z,330.29
2023-03-27T00:44:05.256Z,320.89
2023-03-27T00:45:05.250Z,323.75
2023-03-27T00:46:05.243Z,327.97
2023-03-27T00:47:05.209Z,324.39
2023-03-27T00:48:05.291Z,321.20
2023-03-27T00:49:05.198Z,322.79
2023-03-27T00:50:05.208Z,322.79
2023-03-27T00:51:05.150Z,321.83
2023-03-27T00:52:05.184Z,323.11
2023-03-27T00:53:05.124Z,324.39
2023-03-27T00:54:05.109Z,326.98
2023-03-27T00:55:05.186Z,326.66
2023-03-27T00:56:05.079Z,327.31
2023-03-27T00:57:05.103Z,328.30
2023-03-27T00:58:05.127Z,335.03
2023-03-27T00:59:05.038Z,330.29
2023-03-27T01:00:05.208Z,335.37
2023-03-27T01:01:05.072Z,333.66
2023-03-27T01:02:05.014Z,323.43
2023-03-27T01:03:05.162Z,327.64
2023-03-27T01:04:05.008Z,326.66
2023-03-27T01:05:04.963Z,328.96
2023-03-27T01:06:04.964Z,332.30
2023-03-27T01:07:04.925Z,334.68
2023-03-27T01:08:04.948Z,326.01
2023-03-27T01:09:04.918Z,326.33
2023-03-27T01:10:04.935Z,322.47
2023-03-27T01:11:04.886Z,322.15
2023-03-27T01:12:04.864Z,322.47
2023-03-27T01:13:04.863Z,317.15
2023-03-27T01:14:04.844Z,321.20
2023-03-27T01:15:04.852Z,318.70
2023-03-27T01:16:04.833Z,316.23
2023-03-27T01:17:04.806Z,310.52
2023-03-27T01:18:04.884Z,310.82
2023-03-27T01:19:04.784Z,303.04
2023-03-27T01:20:04.787Z,305.30
2023-03-27T01:21:04.777Z,301.36
2023-03-27T01:22:04.738Z,294.04
2023-03-27T01:23:04.715Z,284.57
2023-03-27T01:24:04.706Z,278.04
2023-03-27T01:25:04.687Z,277.33
2023-03-27T01:26:04.695Z,278.04
2023-03-27T01:27:04.663Z,274.53
2023-03-27T01:28:04.691Z,270.89
2023-03-27T01:29:04.663Z,267.79
2023-03-27T01:30:04.641Z,266.48
2023-03-27T01:31:04.681Z,260.53
2023-03-27T01:32:04.622Z,258.47
2023-03-27T01:33:04.737Z,256.64
2023-03-27T01:34:04.569Z,250.93
2023-03-27T01:35:04.639Z,241.65
2023-03-27T01:36:04.703Z,233.37
2023-03-27T01:37:04.667Z,227.37
2023-03-27T01:38:04.533Z,223.63
2023-03-27T01:39:04.549Z,215.38
2023-03-27T01:40:04.511Z,207.19
2023-03-27T01:41:04.488Z,199.36
2023-03-27T01:42:04.503Z,186.19
2023-03-27T01:43:04.472Z,178.96
2023-03-27T01:44:04.460Z,165.59
2023-03-27T01:45:04.462Z,154.36
2023-03-27T01:46:04.448Z,140.77
2023-03-27T01:47:04.485Z,128.78
2023-03-27T01:48:04.455Z,121.08
2023-03-27T01:49:04.391Z,114.26
2023-03-27T01:50:04.373Z,108.45
2023-03-27T01:51:04.358Z,101.99
2023-03-27T01:52:04.336Z,96.71
2023-03-27T01:53:04.345Z,90.61
2023-03-27T01:54:04.302Z,83.93
2023-03-27T01:55:04.301Z,77.44
2023-03-27T01:56:04.277Z,71.95
2023-03-27T01:57:04.387Z,67.56
2023-03-27T01:58:04.255Z,64.12
2023-03-27T01:59:04.346Z,61.51
2023-03-27T02:00:18.265Z,59.40
2023-03-27T02:01:04.397Z,57.35
2023-03-27T02:02:04.225Z,55.62
2023-03-27T02:03:04.249Z,54.17
2023-03-27T02:04:04.180Z,52.60
2023-03-27T02:05:04.206Z,51.40
2023-03-27T02:06:04.154Z,50.12
2023-03-27T02:07:04.168Z,49.15
2023-03-27T02:08:04.138Z,48.46
2023-03-27T02:09:04.125Z,47.76
2023-03-27T02:10:04.128Z,47.09
2023-03-27T02:11:04.097Z,46.17
2023-03-27T02:12:04.116Z,45.62
2023-03-27T02:13:04.084Z,45.12
2023-03-27T02:14:04.064Z,44.74
2023-03-27T02:15:23.706Z,44.40
2023-03-27T02:16:04.070Z,44.12
2023-03-27T02:17:04.088Z,43.84
2023-03-27T02:18:04.003Z,43.75
2023-03-27T02:19:04.008Z,43.20
2023-03-27T02:20:03.982Z,43.34
2023-03-27T02:21:03.976Z,43.56
2023-03-27T02:22:03.963Z,43.38
2023-03-27T02:23:03.971Z,43.47
2023-03-27T02:24:03.951Z,43.34
2023-03-27T02:25:03.966Z,43.43
2023-03-27T02:26:03.915Z,43.29
2023-03-27T02:27:03.925Z,43.43
2023-03-27T02:28:03.908Z,43.29
2023-03-27T02:29:03.914Z,43.47
2023-03-27T02:30:03.876Z,43.29
2023-03-27T02:31:06.624Z,43.34
2023-03-27T02:32:03.991Z,43.11
2023-03-27T02:33:03.874Z,43.02
2023-03-27T02:34:03.823Z,43.02
2023-03-27T02:35:03.824Z,42.85
2023-03-27T02:36:03.842Z,42.63
2023-03-27T02:37:03.789Z,42.76
2023-03-27T02:38:03.756Z,42.41
2023-03-27T02:39:03.753Z,42.24
2023-03-27T02:40:03.731Z,42.24
2023-03-27T02:41:03.733Z,42.45
2023-03-27T02:42:03.705Z,42.58
2023-03-27T02:43:03.696Z,42.67
2023-03-27T02:44:03.707Z,42.94
2023-03-27T02:45:03.685Z,43.25
2023-03-27T02:46:03.716Z,43.47
2023-03-27T02:47:03.708Z,44.03
2023-03-27T02:48:03.666Z,44.03
2023-03-27T02:49:03.642Z,44.21
2023-03-27T02:50:03.673Z,44.17
2023-03-27T02:51:03.607Z,44.26
2023-03-27T02:52:03.603Z,44.21
2023-03-27T02:53:03.569Z,44.26
2023-03-27T02:54:03.587Z,44.40
2023-03-27T02:55:03.567Z,44.07
2023-03-27T02:56:03.537Z,44.12
2023-03-27T02:57:03.574Z,44.35
2023-03-27T02:58:03.533Z,44.35
2023-03-27T02:59:03.518Z,44.21
2023-03-27T03:00:03.507Z,44.26
2023-03-27T03:01:03.512Z,44.31
2023-03-27T03:02:03.501Z,44.21
2023-03-27T03:03:03.519Z,44.03
2023-03-27T03:04:03.448Z,44.21
2023-03-27T03:05:03.437Z,44.21
2023-03-27T03:06:03.427Z,44.03
2023-03-27T03:07:03.417Z,43.93
2023-03-27T03:08:03.414Z,44.03
2023-03-27T03:09:03.382Z,44.12
2023-03-27T03:10:03.364Z,44.17
2023-03-27T03:11:03.352Z,44.31
2023-03-27T03:12:03.331Z,44.26
2023-03-27T03:13:03.326Z,43.84
2023-03-27T03:14:03.295Z,43.52
2023-03-27T03:15:03.354Z,43.29
2023-03-27T03:16:03.291Z,43.34
2023-03-27T03:17:03.278Z,43.20
2023-03-27T03:18:03.280Z,42.98
2023-03-27T03:19:03.249Z,42.85
2023-03-27T03:20:03.233Z,42.63
2023-03-27T03:21:03.231Z,42.32
2023-03-27T03:22:03.927Z,42.07
2023-03-27T03:23:03.198Z,41.90
2023-03-27T03:24:03.182Z,41.60
2023-03-27T03:25:03.166Z,41.48
2023-03-27T03:26:03.189Z,41.23
2023-03-27T03:27:03.160Z,40.79
2023-03-27T03:28:03.117Z,40.43
2023-03-27T03:29:03.120Z,40.31
2023-03-27T03:30:03.111Z,40.28
2023-03-27T03:31:03.088Z,40.20
2023-03-27T03:32:03.088Z,39.97
2023-03-27T03:33:03.108Z,39.74
2023-03-27T03:34:03.035Z,39.58
2023-03-27T03:35:03.040Z,39.44
2023-03-27T03:36:03.109Z,39.36
2023-03-27T03:37:03.025Z,38.67
2023-03-27T03:38:02.987Z,38.81
2023-03-27T03:39:02.985Z,38.49
2023-03-27T03:40:02.974Z,38.49
2023-03-27T03:41:02.999Z,38.27
2023-03-27T03:42:02.959Z,38.17
2023-03-27T03:43:02.932Z,38.03
2023-03-27T03:44:02.914Z,37.96
2023-03-27T03:45:02.938Z,37.65
2023-03-27T03:46:02.906Z,37.92
2023-03-27T03:47:02.934Z,37.92
2023-03-27T03:48:02.880Z,37.96
2023-03-27T03:49:02.849Z,37.62
2023-03-27T03:50:02.877Z,37.82
2023-03-27T03:51:02.842Z,37.72
2023-03-27T03:52:03.454Z,37.45
2023-03-27T03:53:02.822Z,37.65
2023-03-27T03:54:02.795Z,37.51
2023-03-27T03:55:02.764Z,37.11
2023-03-27T03:56:02.790Z,37.18
2023-03-27T03:57:02.818Z,37.05
2023-03-27T03:58:02.732Z,36.88
2023-03-27T03:59:02.718Z,37.11
2023-03-27T04:00:02.719Z,37.11
2023-03-27T04:01:02.722Z,37.15
2023-03-27T04:02:02.778Z,37.15
2023-03-27T04:03:02.707Z,36.92
2023-03-27T04:04:02.651Z,37.05
2023-03-27T04:05:08.773Z,37.18
2023-03-27T04:06:02.650Z,37.11
2023-03-27T04:07:02.614Z,36.98
2023-03-27T04:08:02.663Z,36.88
2023-03-27T04:09:02.599Z,37.05
2023-03-27T04:10:02.582Z,36.85
2023-03-27T04:11:02.566Z,36.98
2023-03-27T04:12:02.549Z,36.69
2023-03-27T04:13:02.559Z,36.98
2023-03-27T04:14:02.535Z,36.85
2023-03-27T04:15:02.566Z,36.62
2023-03-27T04:16:02.544Z,36.65
2023-03-27T04:17:02.491Z,36.72
2023-03-27T04:18:02.542Z,36.95
2023-03-27T04:19:02.473Z,36.88
2023-03-27T04:20:02.486Z,36.72
2023-03-27T04:21:02.478Z,36.75
2023-03-27T04:22:02.432Z,36.33
2023-03-27T04:23:02.430Z,36.65
2023-03-27T04:24:02.810Z,36.33
2023-03-27T04:25:02.376Z,36.37
2023-03-27T04:26:02.405Z,36.49
2023-03-27T04:27:02.357Z,36.33
2023-03-27T04:28:02.387Z,36.27
2023-03-27T04:29:02.337Z,36.37
2023-03-27T04:30:02.421Z,36.11
2023-03-27T04:31:02.310Z,36.08
2023-03-27T04:32:02.323Z,36.18
2023-03-27T04:33:02.341Z,36.24
2023-03-27T04:34:02.278Z,36.18
2023-03-27T04:35:02.273Z,36.05
2023-03-27T04:36:06.894Z,36.27
2023-03-27T04:37:02.284Z,36.15
2023-03-27T04:38:02.217Z,35.90
2023-03-27T04:39:02.326Z,36.08
2023-03-27T04:40:02.195Z,36.05
2023-03-27T04:41:02.213Z,36.15
2023-03-27T04:42:02.171Z,36.15
2023-03-27T04:43:02.155Z,36.02
2023-03-27T04:44:02.162Z,36.11
2023-03-27T04:45:02.193Z,35.96
2023-03-27T04:46:02.116Z,36.43
2023-03-27T04:47:02.271Z,36.27
2023-03-27T04:48:02.136Z,36.02
2023-03-27T04:49:02.088Z,36.05
2023-03-27T04:50:02.066Z,36.24
2023-03-27T04:51:02.076Z,36.33
2023-03-27T04:52:02.075Z,36.27
2023-03-27T04:53:02.047Z,36.24
2023-03-27T04:54:02.025Z,36.18
2023-03-27T04:55:02.018Z,36.21
2023-03-27T04:56:01.980Z,36.43
2023-03-27T04:57:02.114Z,36.56
2023-03-27T04:58:01.969Z,36.46
2023-03-27T04:59:01.960Z,36.69
2023-03-27T05:00:01.962Z,36.72
2023-03-27T05:01:02.035Z,36.75
2023-03-27T05:02:01.988Z,36.78
2023-03-27T05:03:01.973Z,36.95
2023-03-27T05:04:01.919Z,37.01
2023-03-27T05:05:01.892Z,36.92
2023-03-27T05:06:01.863Z,36.72
2023-03-27T05:07:01.841Z,36.78
2023-03-27T05:08:01.839Z,36.78
2023-03-27T05:09:01.824Z,37.08
2023-03-27T05:10:01.830Z,36.95
2023-03-27T05:11:01.804Z,36.82
2023-03-27T05:12:01.795Z,36.98
2023-03-27T05:13:01.833Z,37.15
2023-03-27T05:14:01.794Z,37.08
2023-03-27T05:15:01.767Z,37.31
2023-03-27T05:16:01.769Z,37.05
2023-03-27T05:17:01.791Z,37.28
2023-03-27T05:18:01.775Z,37.35
2023-03-27T05:19:01.682Z,37.28
2023-03-27T05:20:01.674Z,37.38
2023-03-27T05:21:01.669Z,37.38
2023-03-27T05:22:01.650Z,37.41
2023-03-27T05:23:01.682Z,37.62
2023-03-27T05:24:01.634Z,37.58
2023-03-27T05:25:01.614Z,37.55
2023-03-27T05:26:01.600Z,37.68
2023-03-27T05:27:01.598Z,37.62
2023-03-27T05:28:01.609Z,37.51
2023-03-27T05:29:01.565Z,37.65
2023-03-27T05:30:01.600Z,37.45
2023-03-27T05:31:01.568Z,37.72
2023-03-27T05:32:01.673Z,37.51
2023-03-27T05:33:01.555Z,37.86
2023-03-27T05:34:01.559Z,37.68
2023-03-27T05:35:01.917Z,37.79
2023-03-27T05:36:01.569Z,37.86
2023-03-27T05:37:01.472Z,37.86
2023-03-27T05:38:01.465Z,37.92
2023-03-27T05:39:01.539Z,37.92
2023-03-27T05:40:01.420Z,37.79
2023-03-27T05:41:02.077Z,37.68
2023-03-27T05:42:01.417Z,37.89
2023-03-27T05:43:01.416Z,37.99
2023-03-27T05:44:01.392Z,37.99
2023-03-27T05:45:01.348Z,37.99
2023-03-27T05:46:01.386Z,37.99
2023-03-27T05:47:01.342Z,37.99
2023-03-27T05:48:01.345Z,38.17
2023-03-27T05:49:01.315Z,38.27
2023-03-27T05:50:01.285Z,38.45
2023-03-27T05:51:01.392Z,38.24
2023-03-27T05:53:20.286Z,46.80
2023-03-27T05:54:21.251Z,45.42
2023-03-27T05:55:21.272Z,43.84
2023-03-27T05:56:21.233Z,43.02
2023-03-27T05:57:21.350Z,42.45
2023-03-27T05:58:21.281Z,41.98
2023-03-27T05:59:21.156Z,41.69
2023-03-27T06:00:21.152Z,41.31
2023-03-27T06:01:21.112Z,40.95
2023-03-27T06:02:21.695Z,40.67
2023-03-27T06:03:21.193Z,40.71
2023-03-27T06:04:21.118Z,40.67
2023-03-27T06:05:21.060Z,40.51
2023-03-27T06:06:21.067Z,40.51
2023-03-27T06:07:21.034Z,40.35
2023-03-27T06:08:21.029Z,40.35
2023-03-27T06:09:21.049Z,40.24
2023-03-27T06:10:21.001Z,40.12
2023-03-27T06:11:21.002Z,40.35
2023-03-27T06:12:20.967Z,40.24
2023-03-27T06:13:20.969Z,40.12
2023-03-27T06:14:20.963Z,40.51
2023-03-27T06:15:20.978Z,40.16
2023-03-27T06:16:21.043Z,40.39
2023-03-27T06:17:20.937Z,40.35
2023-03-27T06:18:20.902Z,40.12
2023-03-27T06:19:20.894Z,40.31
2023-03-27T06:20:20.879Z,40.16
2023-03-27T06:21:20.922Z,40.39
2023-03-27T06:22:20.841Z,40.20
2023-03-27T06:23:20.835Z,40.16
2023-03-27T06:24:20.828Z,40.24
2023-03-27T06:25:20.846Z,40.28
2023-03-27T06:26:20.808Z,40.24
2023-03-27T06:27:20.789Z,39.89
2023-03-27T06:28:20.783Z,40.00
2023-03-27T06:29:20.771Z,40.16
2023-03-27T06:30:20.757Z,40.08
2023-03-27T06:31:20.744Z,40.16
2023-03-27T06:32:20.861Z,40.28
2023-03-27T06:33:20.705Z,40.47
2023-03-27T06:34:20.731Z,40.51
2023-03-27T06:35:20.731Z,40.63
2023-03-27T06:36:20.718Z,40.63
2023-03-27T06:37:20.667Z,40.59
2023-03-27T06:38:20.805Z,40.95
2023-03-27T06:39:20.676Z,40.95
2023-03-27T06:40:20.648Z,40.79
2023-03-27T06:41:20.646Z,41.27
2023-03-27T06:42:20.603Z,40.71
2023-03-27T06:43:20.596Z,40.95
2023-03-27T06:44:27.158Z,40.83
2023-03-27T06:45:20.582Z,40.91
2023-03-27T06:46:20.591Z,40.75
2023-03-27T06:47:20.598Z,41.27
2023-03-27T06:48:22.408Z,41.23
2023-03-27T06:49:20.509Z,41.35
2023-03-27T06:50:20.527Z,40.95
2023-03-27T06:51:20.485Z,41.23
2023-03-27T06:52:20.467Z,41.19
2023-03-27T06:54:20.455Z,41.35
2023-03-27T06:55:20.458Z,41.44
2023-03-27T06:56:20.408Z,41.44
2023-03-27T06:57:20.472Z,41.48
2023-03-27T06:58:20.741Z,41.35
2023-03-27T06:59:20.384Z,41.40
2023-03-27T07:00:20.384Z,41.23
2023-03-27T07:01:20.466Z,41.52
2023-03-27T07:02:20.335Z,41.40
2023-03-27T07:03:20.353Z,41.48
2023-03-27T07:04:20.336Z,41.73
2023-03-27T07:05:20.363Z,41.48
2023-03-27T07:06:20.289Z,41.65
2023-03-27T07:07:20.303Z,41.56
2023-03-27T07:08:24.735Z,41.77
2023-03-27T07:09:20.274Z,41.77
2023-03-27T07:10:20.282Z,41.81
2023-03-27T07:11:20.260Z,41.77
2023-03-27T07:12:20.215Z,41.60
2023-03-27T07:13:20.319Z,41.85
2023-03-27T07:14:20.194Z,41.81
2023-03-27T07:15:20.272Z,41.90
2023-03-27T07:16:20.249Z,41.73
2023-03-27T07:17:20.161Z,41.56
2023-03-27T07:18:20.200Z,41.81
2023-03-27T07:19:20.116Z,41.90
2023-03-27T07:20:20.143Z,41.77
2023-03-27T07:21:23.001Z,42.07
2023-03-27T07:22:20.116Z,41.81
2023-03-27T07:23:20.087Z,42.02
2023-03-27T07:24:20.057Z,41.98
2023-03-27T07:25:20.050Z,42.24
2023-03-27T07:26:20.088Z,42.11
2023-03-27T07:27:20.036Z,42.32
2023-03-27T07:28:20.016Z,42.41
2023-03-27T07:29:20.075Z,42.50
2023-03-27T07:30:19.999Z,42.37
2023-03-27T07:31:35.182Z,42.58
2023-03-27T07:32:34.108Z,42.45
2023-03-27T07:33:20.100Z,42.50
2023-03-27T07:34:19.961Z,42.50
2023-03-27T07:35:19.996Z,42.58
2023-03-27T07:36:19.932Z,42.76
2023-03-27T07:37:19.911Z,42.80
2023-03-27T07:38:19.928Z,42.85
2023-03-27T07:39:19.902Z,42.98
2023-03-27T07:40:23.806Z,42.85
2023-03-27T07:41:19.872Z,42.63
2023-03-27T07:42:19.846Z,42.67
2023-03-27T07:43:19.882Z,42.63
2023-03-27T07:44:19.809Z,42.76
2023-03-27T07:45:19.813Z,42.89
2023-03-27T07:46:19.844Z,42.85
2023-03-27T07:47:19.794Z,42.98
2023-03-27T07:48:19.768Z,43.02
2023-03-27T07:49:19.751Z,43.20
2023-03-27T07:50:19.745Z,43.20
2023-03-27T07:51:19.745Z,43.56
2023-03-27T07:52:19.737Z,43.16
2023-03-27T07:53:34.411Z,43.29
2023-03-27T07:54:19.683Z,43.20
2023-03-27T07:55:20.417Z,43.47
2023-03-27T07:56:19.673Z,43.16
2023-03-27T07:57:19.757Z,43.34
2023-03-27T07:58:19.824Z,43.52
2023-03-27T07:59:19.614Z,43.38
2023-03-27T08:00:19.690Z,43.47
2023-03-27T08:01:19.660Z,43.47
2023-03-27T08:02:19.607Z,43.47
2023-03-27T08:03:19.682Z,43.79
2023-03-27T08:04:19.700Z,43.52
2023-03-27T08:05:19.607Z,43.43
2023-03-27T08:06:19.535Z,43.52
2023-03-27T08:07:19.551Z,43.61
2023-03-27T08:08:19.505Z,43.70
2023-03-27T08:09:19.507Z,43.47
2023-03-27T08:10:19.470Z,43.65
2023-03-27T08:11:27.807Z,43.65
2023-03-27T08:12:19.464Z,43.56
2023-03-27T08:13:19.442Z,43.75
2023-03-27T08:14:19.465Z,43.70
2023-03-27T08:15:19.426Z,43.56
2023-03-27T08:16:19.437Z,43.75
2023-03-27T08:17:21.892Z,43.84
2023-03-27T08:18:19.474Z,44.03
2023-03-27T08:19:19.375Z,43.61
2023-03-27T08:20:19.365Z,43.75
2023-03-27T08:21:19.360Z,43.93
2023-03-27T08:22:19.340Z,43.79
2023-03-27T08:23:19.338Z,43.89
2023-03-27T08:24:19.373Z,43.84
2023-03-27T08:25:19.294Z,43.75
2023-03-27T08:26:19.281Z,44.03
2023-03-27T08:27:19.295Z,43.70
2023-03-27T08:28:19.247Z,44.07
2023-03-27T08:29:19.257Z,44.03
2023-03-27T08:30:19.239Z,44.21
2023-03-27T08:31:19.228Z,43.98
2023-03-27T08:32:19.207Z,44.26
2023-03-27T08:33:19.191Z,43.98
2023-03-27T08:34:19.210Z,43.93
2023-03-27T08:35:19.233Z,43.84
2023-03-27T08:36:19.154Z,44.07
2023-03-27T08:37:19.140Z,44.12
2023-03-27T08:38:26.063Z,44.03
2023-03-27T08:39:19.121Z,43.47
2023-03-27T08:40:19.438Z,43.52
2023-03-27T08:41:19.092Z,43.65
2023-03-27T08:42:19.487Z,43.56
2023-03-27T08:43:19.097Z,43.61
2023-03-27T08:44:19.039Z,43.47
2023-03-27T08:45:19.063Z,43.29
2023-03-27T08:46:19.062Z,43.25
2023-03-27T08:47:19.026Z,43.02
2023-03-27T08:48:21.208Z,43.29
2023-03-27T08:49:19.005Z,43.43
2023-03-27T08:50:18.986Z,43.65
2023-03-27T08:51:18.962Z,43.38
2023-03-27T08:52:18.966Z,43.20
2023-03-27T08:53:18.979Z,43.47
2023-03-27T08:54:18.928Z,43.34
2023-03-27T08:55:18.989Z,43.52
2023-03-27T08:56:18.906Z,43.52
2023-03-27T08:57:18.942Z,43.47
2023-03-27T08:58:18.892Z,43.56
2023-03-27T08:59:18.873Z,43.47
2023-03-27T09:00:18.881Z,43.75
2023-03-27T09:01:18.878Z,43.84
2023-03-27T09:02:18.908Z,43.89
2023-03-27T09:03:18.956Z,44.21
2023-03-27T09:04:18.858Z,44.50
2023-03-27T09:05:18.815Z,44.54
2023-03-27T09:06:19.061Z,44.69
2023-03-27T09:07:19.142Z,44.83
2023-03-27T09:08:19.902Z,44.98
2023-03-27T09:09:23.679Z,44.98
2023-03-27T09:10:20.607Z,45.27
2023-03-27T09:11:23.680Z,45.17
2023-03-27T09:12:19.060Z,45.22
2023-03-27T09:13:18.907Z,45.52
2023-03-27T09:14:19.092Z,45.37
2023-03-27T09:15:18.731Z,45.37
2023-03-27T09:16:18.930Z,44.98
2023-03-27T09:17:18.752Z,45.47
2023-03-27T09:18:20.488Z,45.67
2023-03-27T09:19:20.540Z,45.92
2023-03-27T09:20:21.413Z,45.67
2023-03-27T09:21:19.172Z,45.82
2023-03-27T09:22:20.228Z,46.07
2023-03-27T09:23:21.289Z,46.12
2023-03-27T09:24:22.125Z,46.49
2023-03-27T09:25:21.333Z,46.75
2023-03-27T09:26:19.098Z,46.33
2023-03-27T09:27:34.594Z,46.49
2023-03-27T09:28:26.455Z,46.75
2023-03-27T09:29:20.595Z,46.90
2023-03-27T09:30:18.756Z,46.93
2023-03-27T09:31:20.888Z,47.14
2023-03-27T09:32:19.811Z,46.98
2023-03-27T09:33:19.025Z,47.22
2023-03-27T09:34:19.313Z,47.41
2023-03-27T09:35:18.619Z,47.30
2023-03-27T09:36:18.471Z,47.30
2023-03-27T09:37:18.470Z,47.60
2023-03-27T09:38:24.295Z,47.41
2023-03-27T09:39:18.492Z,47.74
2023-03-27T09:40:18.364Z,48.09
2023-03-27T09:41:18.425Z,48.15
2023-03-27T09:42:19.141Z,48.51
2023-03-27T09:43:18.378Z,48.74
2023-03-27T09:44:18.423Z,48.77
2023-03-27T09:45:18.297Z,49.29
2023-03-27T09:46:18.592Z,49.47
2023-03-27T09:47:18.262Z,49.59
2023-03-27T09:48:18.314Z,50.19
2023-03-27T09:49:18.314Z,50.61
2023-03-27T09:50:18.238Z,50.46
2023-03-27T09:51:18.225Z,50.86
2023-03-27T09:52:18.416Z,51.21
2023-03-27T09:53:18.251Z,51.97
2023-03-27T09:54:19.524Z,52.83
2023-03-27T09:55:18.186Z,53.41
2023-03-27T09:56:21.131Z,54.14
2023-03-27T09:57:22.095Z,54.89
2023-03-27T09:58:21.181Z,56.69
2023-03-27T09:59:35.351Z,59.28
2023-03-27T10:00:18.259Z,61.83
2023-03-27T10:01:21.163Z,66.69
2023-03-27T10:02:18.269Z,71.39
2023-03-27T10:03:21.391Z,75.54
2023-03-27T10:04:18.887Z,79.82
2023-03-27T10:05:18.718Z,83.35
2023-03-27T10:06:18.312Z,88.68
2023-03-27T10:07:19.075Z,91.81
2023-03-27T10:08:19.809Z,92.02
2023-03-27T10:09:19.139Z,91.11
2023-03-27T10:10:19.291Z,91.31
2023-03-27T10:11:18.694Z,90.12
2023-03-27T10:12:19.331Z,88.21
2023-03-27T10:13:18.665Z,90.22
2023-03-27T10:14:18.373Z,95.18
2023-03-27T10:15:18.408Z,100.09
2023-03-27T10:16:23.405Z,105.02
2023-03-27T10:17:20.477Z,103.39
2023-03-27T10:18:17.894Z,106.09
2023-03-27T10:19:17.873Z,108.87
2023-03-27T10:20:21.042Z,111.20
2023-03-27T10:21:20.428Z,111.65
2023-03-27T10:22:21.769Z,113.71
2023-03-27T10:23:47.131Z,116.50
2023-03-27T10:24:18.036Z,123.79
2023-03-27T10:25:17.903Z,130.60
2023-03-27T10:26:17.806Z,136.49
2023-03-27T10:27:17.820Z,144.19
2023-03-27T10:28:17.875Z,149.64
2023-03-27T10:29:17.867Z,158.79
2023-03-27T10:30:17.733Z,168.10
2023-03-27T10:31:17.857Z,180.31
2023-03-27T10:32:17.836Z,189.42
2023-03-27T10:33:17.791Z,195.77
2023-03-27T10:34:17.882Z,201.20
2023-03-27T10:35:17.712Z,206.28
2023-03-27T10:36:17.710Z,206.93
2023-03-27T10:37:18.583Z,204.34
2023-03-27T10:38:18.551Z,197.43
2023-03-27T10:39:19.317Z,198.87
2023-03-27T10:40:17.670Z,202.70
2023-03-27T10:41:28.679Z,209.45
2023-03-27T10:42:17.641Z,215.95
2023-03-27T10:43:17.576Z,219.14
2023-03-27T10:44:18.264Z,224.40
2023-03-27T10:45:17.563Z,225.80
2023-03-27T10:46:17.611Z,217.68
2023-03-27T10:47:17.523Z,209.58
2023-03-27T10:48:17.484Z,207.98
2023-03-27T10:49:17.609Z,217.10
2023-03-27T10:50:17.477Z,222.57
2023-03-27T10:51:17.463Z,226.89
2023-03-27T10:52:17.447Z,233.21
2023-03-27T10:53:17.551Z,236.75
2023-03-27T10:54:17.437Z,236.75
2023-03-27T10:55:17.421Z,239.35
2023-03-27T10:56:17.424Z,241.30
2023-03-27T10:57:17.451Z,247.51
2023-03-27T10:58:17.387Z,244.36
2023-03-27T10:59:17.488Z,249.78
2023-03-27T11:02:28.671Z,174.63
2023-03-27T11:53:29.160Z,142.09
2023-03-27T12:06:13.353Z,147.51
2023-03-27T12:08:40.128Z,158.33
2023-03-27T12:09:41.042Z,218.99
2023-03-27T12:10:41.018Z,255.44
2023-03-27T12:11:41.721Z,279.22
2023-03-27T12:12:41.027Z,298.34
2023-03-27T12:13:42.662Z,325.03
2023-03-27T12:14:41.416Z,340.97
2023-03-27T12:15:40.965Z,346.76
2023-03-27T12:16:41.013Z,344.20
2023-03-27T12:17:40.968Z,346.76
2023-03-27T12:18:45.267Z,351.98
2023-03-27T12:19:41.120Z,354.66
2023-03-27T12:20:52.000Z,367.83
2023-03-27T12:21:40.926Z,396.62
2023-03-27T12:22:40.878Z,412.12
2023-03-27T12:23:40.863Z,391.24
2023-03-27T12:24:53.441Z,410.34
2023-03-27T12:25:40.826Z,403.85
2023-03-27T12:26:40.816Z,408.07
2023-03-27T12:27:40.811Z,394.73
2023-03-27T12:28:41.271Z,408.82
2023-03-27T12:29:40.788Z,422.61
2023-03-27T12:30:40.772Z,414.69
2023-03-27T12:31:40.770Z,431.11
2023-03-27T12:32:40.790Z,425.04
2023-03-27T12:33:40.740Z,429.43
2023-03-27T12:34:40.722Z,439.67
2023-03-27T12:35:40.784Z,444.37
2023-03-27T12:36:40.682Z,464.24
2023-03-27T12:37:40.673Z,475.54
2023-03-27T12:38:40.689Z,489.56
2023-03-27T12:39:40.670Z,512.21
2023-03-27T12:40:40.673Z,528.51
2023-03-27T12:41:40.651Z,514.99
2023-03-27T12:42:43.853Z,511.03
2023-03-27T12:43:40.619Z,515.79
2023-03-27T12:44:40.598Z,507.13
2023-03-27T12:45:51.105Z,532.75
2023-03-27T12:46:40.704Z,538.36
2023-03-27T12:47:40.601Z,552.23
2023-03-27T12:48:40.560Z,560.62
2023-03-27T12:49:47.009Z,562.04
2023-03-27T12:50:40.504Z,570.24
2023-03-27T12:51:40.528Z,581.22
2023-03-27T12:52:40.499Z,574.68
2023-03-27T12:53:40.554Z,553.61
2023-03-27T12:54:40.485Z,588.43
2023-03-27T12:55:40.480Z,606.15
2023-03-27T12:56:40.489Z,608.92
2023-03-27T12:57:40.629Z,580.21
2023-03-27T12:58:40.450Z,565.87
2023-03-27T12:59:40.417Z,592.63
2023-03-27T13:00:40.439Z,607.25
2023-03-27T13:01:51.158Z,600.66
2023-03-27T13:02:40.425Z,601.75
2023-03-27T13:03:40.506Z,610.60
2023-03-27T13:04:40.354Z,594.75
2023-03-27T13:05:40.396Z,590.00
2023-03-27T13:06:40.326Z,556.39
2023-03-27T13:07:40.333Z,544.09
2023-03-27T13:08:40.288Z,538.80
2023-03-27T13:09:47.330Z,514.59
2023-03-27T13:10:46.807Z,531.47
2023-03-27T13:11:40.247Z,529.35
2023-03-27T13:12:40.258Z,531.47
2023-03-27T13:13:40.229Z,533.60
2023-03-27T13:14:40.296Z,514.99
2023-03-27T13:15:40.282Z,503.28
2023-03-27T13:16:40.195Z,494.67
2023-03-27T13:17:40.236Z,462.31
2023-03-27T13:18:40.252Z,453.47
2023-03-27T13:19:40.281Z,425.58
2023-03-27T13:20:40.209Z,465.22
2023-03-27T13:21:40.129Z,493.56
2023-03-27T13:22:40.122Z,499.88
2023-03-27T13:23:40.110Z,526.41
2023-03-27T13:24:40.090Z,523.92
2023-03-27T13:25:40.149Z,537.92
2023-03-27T13:26:40.730Z,535.32
2023-03-27T13:27:40.165Z,520.23
2023-03-27T13:28:40.571Z,522.28
2023-03-27T13:29:41.003Z,554.07
2023-03-27T13:30:40.036Z,575.18
2023-03-27T13:31:40.119Z,577.18
2023-03-27T13:32:40.283Z,563.00
2023-03-27T13:33:40.509Z,577.68
2023-03-27T13:34:40.802Z,572.21
2023-03-27T13:35:40.269Z,580.21
2023-03-27T13:36:39.970Z,577.18
2023-03-27T13:37:39.952Z,594.22
2023-03-27T13:38:39.908Z,606.15
2023-03-27T13:39:39.917Z,610.04
2023-03-27T13:40:39.916Z,615.70
2023-03-27T13:41:39.960Z,624.96
2023-03-27T13:42:41.432Z,629.10
2023-03-27T13:43:39.870Z,627.92
2023-03-27T13:44:40.171Z,651.31
2023-03-27T13:45:39.893Z,661.03
2023-03-27T13:46:40.104Z,662.35
2023-03-27T13:47:39.829Z,684.18
2023-03-27T13:48:39.832Z,674.45
2023-03-27T13:49:39.827Z,673.77
2023-03-27T13:50:39.773Z,686.30
2023-03-27T13:51:39.760Z,712.81